createdAt,value
2023-01-19T00:00:57.451Z,7.57
2023-01-19T00:02:30.452Z,7.38
2023-01-19T00:04:03.432Z,7.03
2023-01-19T00:05:37.118Z,7.88
2023-01-19T00:07:10.102Z,7.83
2023-01-19T00:08:44.658Z,7.78
2023-01-19T00:10:19.511Z,7.80
2023-01-19T00:11:52.552Z,7.90
2023-01-19T00:13:25.774Z,7.57
2023-01-19T00:15:00.271Z,7.53
2023-01-19T00:16:33.220Z,8.33
2023-01-19T00:18:05.284Z,7.68
2023-01-19T00:19:38.243Z,8.10
2023-01-19T00:21:11.466Z,7.30
2023-01-19T00:22:44.368Z,7.45
2023-01-19T00:24:17.602Z,7.78
2023-01-19T00:25:51.297Z,7.20
2023-01-19T00:27:24.515Z,7.53
2023-01-19T00:28:57.899Z,7.78
2023-01-19T00:32:05.229Z,7.50
2023-01-19T00:33:37.358Z,7.13
2023-01-19T00:35:10.647Z,7.53
2023-01-19T00:36:44.040Z,7.80
2023-01-19T00:39:48.793Z,7.80
2023-01-19T00:41:43.892Z,8.33
2023-01-19T00:43:15.974Z,7.40
2023-01-19T00:44:48.976Z,8.30
2023-01-19T00:46:27.154Z,8.75
2023-01-19T00:48:00.085Z,8.10
2023-01-19T00:49:33.049Z,8.27
2023-01-19T00:51:06.313Z,8.00
2023-01-19T00:52:38.730Z,8.18
2023-01-19T00:54:11.584Z,8.67
2023-01-19T00:55:43.575Z,8.07
2023-01-19T00:57:19.138Z,8.00
2023-01-19T00:58:52.051Z,8.33
2023-01-19T01:00:25.666Z,7.57
2023-01-19T01:01:58.813Z,8.70
2023-01-19T01:03:32.017Z,8.18
2023-01-19T01:05:06.099Z,9.00
2023-01-19T01:06:39.084Z,10.90
2023-01-19T01:08:11.948Z,8.75
2023-01-19T01:09:44.833Z,9.18
2023-01-19T01:11:17.740Z,8.52
2023-01-19T01:13:19.975Z,8.45
2023-01-19T01:14:45.626Z,8.10
2023-01-19T01:16:18.691Z,8.50
2023-01-19T01:17:53.100Z,8.48
2023-01-19T01:19:26.121Z,8.73
2023-01-19T01:21:02.669Z,8.45
2023-01-19T01:22:35.576Z,9.20
2023-01-19T01:24:09.387Z,8.85
2023-01-19T01:25:42.594Z,8.97
2023-01-19T01:27:15.619Z,9.32
2023-01-19T01:28:50.665Z,9.25
2023-01-19T01:30:24.061Z,8.57
2023-01-19T01:33:41.060Z,8.27
2023-01-19T01:35:15.395Z,8.77
2023-01-19T01:36:48.350Z,8.37
2023-01-19T01:38:21.436Z,8.80
2023-01-19T01:39:54.410Z,8.73
2023-01-19T01:41:27.391Z,8.82
2023-01-19T01:43:00.790Z,9.30
2023-01-19T01:44:53.937Z,9.17
2023-01-19T01:46:28.663Z,9.60
2023-01-19T01:48:09.811Z,8.97
2023-01-19T01:49:42.077Z,10.03
2023-01-19T01:51:25.283Z,9.10
2023-01-19T01:53:06.898Z,8.88
2023-01-19T01:54:40.897Z,8.93
2023-01-19T01:56:17.791Z,8.50
2023-01-19T01:57:54.547Z,9.23
2023-01-19T01:59:34.831Z,8.87
2023-01-19T02:01:29.149Z,8.60
2023-01-19T02:04:35.932Z,8.20
2023-01-19T02:06:10.315Z,8.90
2023-01-19T02:08:06.505Z,8.13
2023-01-19T02:09:56.940Z,8.30
2023-01-19T02:11:48.913Z,8.47
2023-01-19T02:13:23.196Z,8.30
2023-01-19T02:14:56.428Z,8.80
2023-01-19T02:16:30.998Z,8.88
2023-01-19T02:18:02.974Z,9.33
2023-01-19T02:19:41.826Z,9.53
2023-01-19T02:21:21.105Z,8.67
2023-01-19T02:22:55.216Z,8.50
2023-01-19T02:24:30.049Z,9.07
2023-01-19T02:26:02.594Z,9.10
2023-01-19T02:27:36.994Z,9.88
2023-01-19T02:29:13.005Z,8.50
2023-01-19T02:30:45.293Z,8.67
2023-01-19T02:32:18.281Z,8.67
2023-01-19T02:33:51.589Z,8.85
2023-01-19T02:35:25.500Z,8.50
2023-01-19T02:37:03.001Z,8.73
2023-01-19T02:38:38.427Z,8.23
2023-01-19T02:40:15.271Z,8.87
2023-01-19T02:41:52.729Z,8.37
2023-01-19T02:43:27.822Z,8.70
2023-01-19T02:45:01.044Z,9.10
2023-01-19T02:46:37.265Z,8.95
2023-01-19T02:48:10.241Z,8.80
2023-01-19T02:49:43.174Z,9.80
2023-01-19T02:51:19.118Z,9.43
2023-01-19T02:52:54.483Z,9.83
2023-01-19T02:54:46.544Z,9.57
2023-01-19T02:56:56.764Z,9.97
2023-01-19T02:58:37.879Z,8.17
2023-01-19T03:00:23.618Z,9.23
2023-01-19T03:02:20.198Z,8.40
2023-01-19T03:03:57.086Z,8.80
2023-01-19T03:05:57.322Z,8.80
2023-01-19T03:07:44.795Z,8.50
2023-01-19T03:09:29.028Z,8.33
2023-01-19T03:11:09.532Z,8.70
2023-01-19T03:12:50.690Z,8.73
2023-01-19T03:14:29.774Z,8.47
2023-01-19T03:16:12.123Z,8.50
2023-01-19T03:17:48.902Z,8.73
2023-01-19T03:19:27.280Z,8.43
2023-01-19T03:21:03.156Z,8.97
2023-01-19T03:22:36.950Z,9.13
2023-01-19T03:24:12.637Z,9.27
2023-01-19T03:25:48.451Z,9.60
2023-01-19T03:27:27.098Z,9.13
2023-01-19T03:29:02.373Z,8.50
2023-01-19T03:30:40.526Z,9.27
2023-01-19T03:32:17.452Z,8.73
2023-01-19T03:33:53.625Z,9.33
2023-01-19T03:35:30.545Z,8.67
2023-01-19T03:37:05.539Z,8.87
2023-01-19T03:38:39.539Z,8.93
2023-01-19T03:40:13.209Z,9.27
2023-01-19T03:41:49.643Z,8.87
2023-01-19T03:43:24.448Z,9.20
2023-01-19T03:45:02.278Z,9.13
2023-01-19T03:46:34.731Z,8.43
2023-01-19T03:48:08.497Z,9.43
2023-01-19T03:49:44.341Z,10.13
2023-01-19T03:51:19.500Z,8.53
2023-01-19T03:53:02.677Z,9.33
2023-01-19T03:54:35.762Z,9.43
2023-01-19T03:56:16.771Z,10.85
2023-01-19T03:57:49.887Z,10.07
2023-01-19T03:59:22.827Z,9.85
2023-01-19T04:00:57.114Z,10.27
2023-01-19T04:02:30.130Z,10.13
2023-01-19T04:04:03.085Z,9.98
2023-01-19T04:05:35.120Z,9.48
2023-01-19T04:07:08.029Z,10.67
2023-01-19T04:08:40.735Z,10.63
2023-01-19T04:10:13.727Z,10.10
2023-01-19T04:11:46.731Z,10.10
2023-01-19T04:13:19.605Z,10.23
2023-01-19T04:14:52.530Z,9.30
2023-01-19T04:16:26.911Z,10.38
2023-01-19T04:18:00.119Z,10.33
2023-01-19T04:19:33.147Z,9.55
2023-01-19T04:21:08.774Z,9.75
2023-01-19T04:22:42.518Z,10.90
2023-01-19T04:24:15.471Z,9.30
2023-01-19T04:25:48.443Z,9.77
2023-01-19T04:27:21.502Z,9.75
2023-01-19T04:28:54.425Z,9.82
2023-01-19T04:30:27.274Z,10.05
2023-01-19T04:32:01.572Z,9.70
2023-01-19T04:33:35.058Z,10.03
2023-01-19T04:36:52.490Z,8.97
2023-01-19T04:38:33.345Z,9.53
2023-01-19T04:40:08.212Z,9.47
2023-01-19T04:41:47.945Z,9.53
2023-01-19T04:43:22.080Z,9.63
2023-01-19T04:44:55.590Z,9.83
2023-01-19T04:48:18.296Z,8.40
2023-01-19T04:49:54.242Z,9.80
2023-01-19T04:51:28.793Z,9.70
2023-01-19T04:53:10.387Z,9.83
2023-01-19T04:54:44.467Z,9.03
2023-01-19T04:56:20.018Z,10.30
2023-01-19T04:57:54.656Z,9.33
2023-01-19T04:59:33.555Z,9.10
2023-01-19T05:01:17.867Z,10.63
2023-01-19T05:02:51.984Z,10.03
2023-01-19T05:04:27.535Z,8.67
2023-01-19T05:06:01.001Z,9.50
2023-01-19T05:09:15.290Z,8.93
2023-01-19T05:10:54.144Z,9.63
2023-01-19T05:12:29.906Z,10.70
2023-01-19T05:14:03.656Z,11.17
2023-01-19T05:15:37.528Z,10.43
2023-01-19T05:17:11.656Z,11.40
2023-01-19T05:18:46.912Z,11.17
2023-01-19T05:20:22.287Z,10.40
2023-01-19T05:21:56.491Z,10.67
2023-01-19T05:23:31.232Z,10.43
2023-01-19T05:25:12.663Z,10.70
2023-01-19T05:26:46.338Z,10.07
2023-01-19T05:28:21.421Z,10.43
2023-01-19T05:29:55.340Z,11.77
2023-01-19T05:31:29.109Z,10.80
2023-01-19T05:33:13.015Z,10.17
2023-01-19T05:34:51.132Z,8.85
2023-01-19T05:36:38.189Z,9.70
2023-01-19T05:38:14.521Z,9.73
2023-01-19T05:39:48.255Z,9.13
2023-01-19T05:41:22.271Z,9.53
2023-01-19T05:42:55.819Z,10.37
2023-01-19T05:44:32.576Z,9.70
2023-01-19T05:46:08.423Z,9.27
2023-01-19T05:47:41.409Z,10.77
2023-01-19T05:49:14.590Z,10.55
2023-01-19T05:50:49.392Z,9.98
2023-01-19T05:52:24.969Z,9.20
2023-01-19T05:54:04.761Z,10.37
2023-01-19T05:55:37.880Z,9.80
2023-01-19T05:57:11.895Z,9.63
2023-01-19T05:58:44.954Z,10.30
2023-01-19T06:00:17.737Z,9.48
2023-01-19T06:01:50.888Z,9.85
2023-01-19T06:03:24.357Z,9.40
2023-01-19T06:06:30.524Z,9.90
2023-01-19T06:08:05.022Z,8.90
2023-01-19T06:09:38.276Z,9.60
2023-01-19T06:11:11.293Z,8.88
2023-01-19T06:12:44.278Z,8.77
2023-01-19T06:14:17.588Z,8.57
2023-01-19T06:15:50.536Z,8.93
2023-01-19T06:17:23.621Z,10.18
2023-01-19T06:18:57.088Z,9.68
2023-01-19T06:20:30.379Z,10.33
2023-01-19T06:22:03.485Z,9.73
2023-01-19T06:23:38.198Z,10.10
2023-01-19T06:25:11.928Z,10.00
2023-01-19T06:26:45.071Z,10.70
2023-01-19T06:28:18.290Z,9.95
2023-01-19T06:29:51.297Z,9.95
2023-01-19T06:31:24.847Z,9.63
2023-01-19T06:32:58.073Z,10.00
2023-01-19T06:34:31.083Z,10.30
2023-01-19T06:36:04.540Z,9.98
2023-01-19T06:37:37.674Z,11.40
2023-01-19T06:39:12.074Z,9.90
2023-01-19T06:40:45.767Z,9.77
2023-01-19T06:42:18.727Z,10.63
2023-01-19T06:43:51.634Z,9.60
2023-01-19T06:45:24.786Z,9.63
2023-01-19T06:47:15.917Z,9.85
2023-01-19T06:48:49.355Z,10.17
2023-01-19T06:50:22.363Z,9.85
2023-01-19T06:51:55.574Z,9.68
2023-01-19T06:53:30.137Z,10.27
2023-01-19T06:55:04.910Z,9.53
2023-01-19T06:56:37.910Z,9.93
2023-01-19T06:58:12.339Z,9.23
2023-01-19T06:59:45.155Z,11.20
2023-01-19T07:01:18.333Z,11.18
2023-01-19T07:02:51.520Z,9.95
2023-01-19T07:04:24.704Z,10.07
2023-01-19T07:05:57.698Z,10.75
2023-01-19T07:07:31.142Z,9.52
2023-01-19T07:11:25.850Z,9.13
2023-01-19T07:12:41.593Z,8.97
2023-01-19T07:14:14.761Z,9.57
2023-01-19T07:15:47.725Z,10.15
2023-01-19T07:17:21.131Z,9.55
2023-01-19T07:20:27.019Z,9.03
2023-01-19T07:22:00.598Z,10.02
2023-01-19T07:23:33.983Z,10.60
2023-01-19T07:26:42.285Z,9.27
2023-01-19T07:28:16.425Z,9.43
2023-01-19T07:29:49.361Z,9.57
2023-01-19T07:31:22.492Z,9.20
2023-01-19T07:32:57.102Z,10.38
2023-01-19T07:34:30.063Z,9.13
2023-01-19T07:36:03.203Z,9.52
2023-01-19T07:37:36.430Z,11.00
2023-01-19T07:39:09.538Z,10.57
2023-01-19T07:40:42.550Z,10.32
2023-01-19T07:42:16.859Z,10.00
2023-01-19T07:43:51.314Z,9.53
2023-01-19T07:45:24.281Z,10.03
2023-01-19T07:46:57.345Z,11.85
2023-01-19T07:48:34.734Z,9.90
2023-01-19T07:50:10.176Z,10.43
2023-01-19T07:51:43.651Z,9.47
2023-01-19T07:54:50.907Z,9.15
2023-01-19T07:56:24.635Z,8.87
2023-01-19T07:57:58.149Z,9.00
2023-01-19T08:01:08.291Z,8.20
2023-01-19T08:02:41.390Z,8.33
2023-01-19T08:04:14.398Z,8.65
2023-01-19T08:05:52.164Z,9.13
2023-01-19T08:07:25.116Z,8.97
2023-01-19T08:08:57.995Z,8.90
2023-01-19T08:10:31.253Z,8.65
2023-01-19T08:12:04.429Z,9.05
2023-01-19T08:13:38.816Z,8.85
2023-01-19T08:15:12.418Z,9.50
2023-01-19T08:16:45.362Z,10.27
2023-01-19T08:18:18.965Z,9.70
2023-01-19T08:19:51.886Z,9.97
2023-01-19T08:21:24.785Z,9.35
2023-01-19T08:23:00.131Z,10.30
2023-01-19T08:24:33.480Z,9.60
2023-01-19T08:26:20.245Z,9.85
2023-01-19T08:27:55.849Z,9.37
2023-01-19T08:29:31.880Z,9.70
2023-01-19T08:31:18.716Z,9.80
2023-01-19T08:32:53.753Z,10.07
2023-01-19T08:36:00.172Z,8.53
2023-01-19T08:37:34.301Z,8.88
2023-01-19T08:39:07.491Z,8.60
2023-01-19T08:40:42.040Z,9.35
2023-01-19T08:42:14.989Z,10.00
2023-01-19T08:43:47.932Z,9.10
2023-01-19T08:45:22.211Z,9.25
2023-01-19T08:46:55.179Z,9.40
2023-01-19T08:48:28.208Z,9.13
2023-01-19T08:50:01.143Z,10.77
2023-01-19T08:51:34.131Z,9.80
2023-01-19T08:53:07.588Z,8.93
2023-01-19T08:56:14.312Z,7.47
2023-01-19T08:57:47.214Z,10.07
2023-01-19T08:59:20.070Z,8.50
2023-01-19T09:00:54.643Z,8.70
2023-01-19T09:02:27.646Z,8.60
2023-01-19T09:04:00.735Z,7.55
2023-01-19T09:05:37.154Z,7.80
2023-01-19T09:07:10.133Z,7.83
2023-01-19T09:08:43.079Z,7.95
2023-01-19T09:10:16.826Z,9.20
2023-01-19T09:11:49.746Z,7.87
2023-01-19T09:13:22.680Z,8.00
2023-01-19T09:14:55.689Z,8.63
2023-01-19T09:16:30.001Z,7.63
2023-01-19T09:18:03.615Z,7.13
2023-01-19T09:19:36.465Z,7.00
2023-01-19T09:21:10.341Z,7.05
2023-01-19T09:22:43.327Z,12.53
2023-01-19T09:24:16.227Z,13.60
2023-01-19T09:25:49.582Z,10.00
2023-01-19T09:28:55.273Z,7.90
2023-01-19T09:30:28.793Z,8.55
2023-01-19T09:32:03.149Z,8.00
2023-01-19T09:33:36.615Z,6.70
2023-01-19T09:35:10.375Z,6.57
2023-01-19T09:36:43.316Z,7.83
2023-01-19T09:38:17.567Z,6.20
2023-01-19T09:39:50.565Z,6.73
2023-01-19T09:41:25.986Z,6.45
2023-01-19T09:43:08.034Z,6.70
2023-01-19T09:44:43.609Z,6.27
2023-01-19T09:46:20.227Z,6.20
2023-01-19T09:47:55.939Z,7.80
2023-01-19T09:49:34.682Z,7.60
2023-01-19T09:51:12.645Z,6.13
2023-01-19T09:52:53.098Z,6.80
2023-01-19T09:54:34.087Z,6.27
2023-01-19T09:56:11.938Z,6.40
2023-01-19T09:57:45.169Z,7.20
2023-01-19T09:59:22.120Z,6.30
2023-01-19T10:01:01.600Z,5.90
2023-01-19T10:02:41.697Z,6.20
2023-01-19T10:04:28.706Z,6.27
2023-01-19T10:06:04.761Z,5.77
2023-01-19T10:07:53.217Z,5.73
2023-01-19T10:09:33.403Z,6.33
2023-01-19T10:11:18.691Z,5.97
2023-01-19T10:13:11.043Z,5.77
2023-01-19T10:14:49.647Z,7.17
2023-01-19T10:16:34.059Z,8.20
2023-01-19T10:18:14.601Z,6.33
2023-01-19T10:19:54.419Z,5.37
2023-01-19T10:21:31.534Z,5.93
2023-01-19T10:23:17.251Z,5.33
2023-01-19T10:24:54.300Z,4.85
2023-01-19T10:26:33.917Z,5.63
2023-01-19T10:28:06.978Z,5.28
2023-01-19T10:29:39.997Z,4.88
2023-01-19T10:31:14.450Z,4.63
2023-01-19T10:32:47.953Z,5.07
2023-01-19T10:35:58.086Z,4.68
2023-01-19T10:37:34.306Z,4.53
2023-01-19T10:39:07.955Z,4.68
2023-01-19T10:40:53.884Z,4.30
2023-01-19T10:42:30.833Z,4.63
2023-01-19T10:44:05.337Z,4.53
2023-01-19T10:45:38.350Z,4.90
2023-01-19T10:47:17.792Z,4.93
2023-01-19T10:48:52.796Z,4.43
2023-01-19T10:50:28.145Z,4.72
2023-01-19T10:52:03.409Z,4.57
2023-01-19T10:53:36.906Z,4.18
2023-01-19T10:55:25.720Z,5.43
2023-01-19T10:57:00.380Z,4.97
2023-01-19T10:58:36.329Z,4.10
2023-01-19T11:00:31.341Z,4.93
2023-01-19T11:02:16.095Z,4.78
2023-01-19T11:03:49.845Z,4.18
2023-01-19T11:05:24.805Z,4.47
2023-01-19T11:07:15.063Z,4.63
2023-01-19T11:08:50.294Z,3.90
2023-01-19T11:10:25.549Z,4.10
2023-01-19T11:11:58.597Z,4.50
2023-01-19T11:13:32.663Z,3.80
2023-01-19T11:15:15.917Z,3.90
2023-01-19T11:16:52.409Z,3.78
2023-01-19T11:18:29.497Z,3.58
2023-01-19T11:20:03.981Z,3.70
2023-01-19T11:21:37.097Z,3.60
2023-01-19T11:23:23.569Z,3.83
2023-01-19T11:25:00.397Z,3.83
2023-01-19T11:26:42.660Z,3.72
2023-01-19T11:28:19.791Z,3.65
2023-01-19T11:30:01.517Z,4.28
2023-01-19T11:31:36.073Z,3.53
2023-01-19T11:33:25.500Z,3.78
2023-01-19T11:34:58.413Z,3.67
2023-01-19T11:36:33.347Z,4.50
2023-01-19T11:38:08.691Z,3.63
2023-01-19T11:39:50.459Z,4.07
2023-01-19T11:41:27.558Z,3.92
2023-01-19T11:43:01.269Z,3.60
2023-01-19T11:44:36.736Z,3.47
2023-01-19T11:46:13.110Z,3.60
2023-01-19T11:47:49.228Z,3.40
2023-01-19T11:49:28.879Z,4.78
2023-01-19T11:51:08.471Z,4.13
2023-01-19T11:52:46.979Z,3.60
2023-01-19T11:54:25.078Z,4.15
2023-01-19T11:56:03.809Z,4.78
2023-01-19T11:57:36.820Z,4.72
2023-01-19T11:59:12.931Z,4.63
2023-01-19T12:00:50.928Z,4.43
2023-01-19T12:02:29.739Z,4.22
2023-01-19T12:04:08.493Z,4.25
2023-01-19T12:05:47.267Z,3.78
2023-01-19T12:07:26.918Z,3.92
2023-01-19T12:09:02.870Z,4.88
2023-01-19T12:10:41.564Z,4.13
2023-01-19T12:12:26.823Z,3.88
2023-01-19T12:14:02.151Z,3.72
2023-01-19T12:15:39.761Z,4.55
2023-01-19T12:17:21.362Z,4.05
2023-01-19T12:18:57.602Z,3.15
2023-01-19T12:20:36.118Z,3.17
2023-01-19T12:22:14.462Z,3.83
2023-01-19T12:24:01.632Z,3.67
2023-01-19T12:25:48.027Z,3.00
2023-01-19T12:27:33.075Z,3.40
2023-01-19T12:29:12.635Z,3.17
2023-01-19T12:30:46.052Z,2.72
2023-01-19T12:32:21.084Z,3.67
2023-01-19T12:33:54.301Z,5.15
2023-01-19T12:35:56.058Z,3.45
2023-01-19T12:37:41.543Z,4.13
2023-01-19T12:39:19.713Z,3.70
2023-01-19T12:41:20.907Z,5.80
2023-01-19T12:43:01.419Z,3.60
2023-01-19T12:44:35.242Z,2.80
2023-01-19T12:46:20.673Z,3.03
2023-01-19T12:47:55.673Z,2.67
2023-01-19T12:49:32.123Z,2.70
2023-01-19T12:51:05.463Z,2.78
2023-01-19T12:54:28.427Z,3.15
2023-01-19T12:56:08.631Z,2.60
2023-01-19T12:57:50.159Z,3.00
2023-01-19T12:59:27.394Z,2.83
2023-01-19T13:01:16.496Z,2.72
2023-01-19T13:02:51.695Z,3.30
2023-01-19T13:04:33.120Z,2.80
2023-01-19T13:06:06.142Z,3.05
2023-01-19T13:08:12.703Z,3.05
2023-01-19T13:09:45.735Z,2.97
2023-01-19T13:11:20.766Z,2.88
2023-01-19T13:13:17.720Z,3.10
2023-01-19T13:14:52.636Z,3.28
2023-01-19T13:16:54.432Z,2.90
2023-01-19T13:18:54.447Z,2.75
2023-01-19T13:20:29.870Z,2.70
2023-01-19T13:22:41.403Z,2.85
2023-01-19T13:24:16.511Z,2.90
2023-01-19T13:25:54.263Z,3.20
2023-01-19T13:27:28.601Z,3.17
2023-01-19T13:29:07.962Z,2.90
2023-01-19T13:30:56.446Z,2.90
2023-01-19T13:32:30.188Z,3.55
2023-01-19T13:34:04.993Z,3.58
2023-01-19T13:35:38.341Z,4.60
2023-01-19T13:38:51.094Z,3.97
2023-01-19T13:40:26.297Z,4.40
2023-01-19T13:42:02.097Z,4.80
2023-01-19T13:43:39.041Z,3.63
2023-01-19T13:45:27.496Z,3.90
2023-01-19T13:47:04.976Z,4.25
2023-01-19T13:48:38.548Z,3.58
2023-01-19T13:50:21.460Z,4.43
2023-01-19T13:52:12.480Z,4.03
2023-01-19T13:53:55.088Z,4.28
2023-01-19T13:55:30.103Z,4.10
2023-01-19T13:57:03.137Z,3.63
2023-01-19T13:58:36.349Z,3.17
2023-01-19T14:00:18.712Z,5.18
2023-01-19T14:01:54.181Z,5.13
2023-01-19T14:03:29.029Z,5.80
2023-01-19T14:05:15.239Z,4.47
2023-01-19T14:06:49.799Z,3.83
2023-01-19T14:08:25.677Z,3.90
2023-01-19T14:10:06.478Z,3.75
2023-01-19T14:11:39.571Z,4.53
2023-01-19T14:13:17.448Z,5.13
2023-01-19T14:14:50.485Z,5.43
2023-01-19T14:16:25.105Z,4.30
2023-01-19T14:18:26.384Z,3.67
2023-01-19T14:20:01.990Z,3.80
2023-01-19T14:21:40.820Z,4.07
2023-01-19T14:23:39.493Z,4.82
2023-01-19T14:25:29.694Z,4.68
2023-01-19T14:27:14.196Z,3.60
2023-01-19T14:28:47.326Z,4.88
2023-01-19T14:30:24.975Z,4.13
2023-01-19T14:32:13.686Z,5.57
2023-01-19T14:33:47.762Z,4.40
2023-01-19T14:35:26.656Z,4.43
2023-01-19T14:37:00.567Z,5.00
2023-01-19T14:38:33.477Z,4.07
2023-01-19T14:40:19.460Z,4.32
2023-01-19T14:41:53.544Z,4.25
2023-01-19T14:43:28.617Z,3.72
2023-01-19T14:45:04.741Z,4.22
2023-01-19T14:46:38.136Z,3.72
2023-01-19T14:49:50.975Z,4.32
2023-01-19T14:51:26.787Z,4.35
2023-01-19T14:53:03.349Z,4.82
2023-01-19T14:54:40.062Z,4.32
2023-01-19T14:56:13.180Z,4.18
2023-01-19T14:57:46.188Z,4.00
2023-01-19T14:59:19.229Z,4.35
2023-01-19T15:00:55.611Z,4.32
2023-01-19T15:02:28.811Z,4.70
2023-01-19T15:04:01.858Z,4.15
2023-01-19T15:05:35.063Z,4.15
2023-01-19T15:07:17.385Z,4.72
2023-01-19T15:08:53.239Z,4.50
2023-01-19T15:10:27.066Z,4.25
2023-01-19T15:12:00.600Z,4.45
2023-01-19T15:13:33.641Z,4.82
2023-01-19T15:15:12.953Z,4.45
2023-01-19T15:16:46.554Z,4.97
2023-01-19T15:18:25.226Z,4.45
2023-01-19T15:19:58.305Z,4.35
2023-01-19T15:21:31.311Z,4.60
2023-01-19T15:23:05.810Z,5.25
2023-01-19T15:24:39.684Z,4.78
2023-01-19T15:26:17.609Z,4.93
2023-01-19T15:27:50.677Z,5.50
2023-01-19T15:29:25.880Z,5.20
2023-01-19T15:31:00.345Z,4.88
2023-01-19T15:32:33.280Z,5.10
2023-01-19T15:34:06.394Z,6.20
2023-01-19T15:35:39.511Z,7.22
2023-01-19T15:37:12.476Z,7.22
2023-01-19T15:38:47.488Z,5.88
2023-01-19T15:40:23.158Z,6.75
2023-01-19T15:41:56.681Z,4.55
2023-01-19T15:43:29.627Z,4.13
2023-01-19T15:45:02.537Z,4.75
2023-01-19T15:46:35.691Z,4.50
2023-01-19T15:48:10.876Z,4.50
2023-01-19T15:49:43.831Z,5.10
2023-01-19T15:51:18.977Z,4.18
2023-01-19T15:52:52.049Z,4.57
2023-01-19T15:54:26.311Z,3.65
2023-01-19T15:55:59.345Z,4.55
2023-01-19T15:57:34.625Z,4.57
2023-01-19T15:59:07.672Z,3.78
2023-01-19T16:00:41.074Z,4.82
2023-01-19T16:03:47.505Z,5.18
2023-01-19T16:06:57.176Z,4.65
2023-01-19T16:08:30.077Z,4.65
2023-01-19T16:10:06.204Z,5.65
2023-01-19T16:11:39.131Z,4.85
2023-01-19T16:13:13.168Z,5.28
2023-01-19T16:14:46.101Z,5.18
2023-01-19T16:16:23.364Z,5.30
2023-01-19T16:17:56.322Z,5.30
2023-01-19T16:19:29.260Z,5.18
2023-01-19T16:21:02.454Z,4.72
2023-01-19T16:22:36.914Z,4.82
2023-01-19T16:24:09.847Z,5.38
2023-01-19T16:25:44.215Z,4.80
2023-01-19T16:27:17.156Z,5.28
2023-01-19T16:28:50.198Z,5.70
2023-01-19T16:30:23.345Z,5.18
2023-01-19T16:31:56.527Z,5.78
2023-01-19T16:33:29.627Z,5.55
2023-01-19T16:35:02.541Z,4.90
2023-01-19T16:36:37.376Z,5.07
2023-01-19T16:38:10.332Z,5.27
2023-01-19T16:39:45.332Z,5.40
2023-01-19T16:41:19.861Z,5.30
2023-01-19T16:42:52.726Z,5.70
2023-01-19T16:44:25.805Z,5.72
2023-01-19T16:46:00.706Z,5.93
2023-01-19T16:47:33.638Z,5.80
2023-01-19T16:49:11.677Z,5.30
2023-01-19T16:50:44.571Z,6.07
2023-01-19T16:52:17.509Z,6.07
2023-01-19T16:53:51.451Z,5.22
2023-01-19T16:55:24.497Z,6.00
2023-01-19T16:56:59.495Z,6.43
2023-01-19T16:58:32.510Z,6.27
2023-01-19T17:00:06.417Z,5.38
2023-01-19T17:01:39.674Z,5.60
2023-01-19T17:04:45.518Z,5.67
2023-01-19T17:06:20.500Z,6.10
2023-01-19T17:07:53.397Z,5.97
2023-01-19T17:09:26.279Z,6.18
2023-01-19T17:11:02.646Z,6.07
2023-01-19T17:12:36.948Z,5.30
2023-01-19T17:14:12.811Z,6.20
2023-01-19T17:15:45.899Z,6.00
2023-01-19T17:17:18.873Z,5.53
2023-01-19T17:18:52.096Z,6.55
2023-01-19T17:20:25.073Z,5.75
2023-01-19T17:21:58.044Z,6.00
2023-01-19T17:23:31.547Z,5.53
2023-01-19T17:26:37.485Z,5.97
2023-01-19T17:28:11.854Z,7.32
2023-01-19T17:29:44.914Z,6.53
2023-01-19T17:31:19.710Z,6.15
2023-01-19T17:32:52.828Z,5.47
2023-01-19T17:34:25.881Z,5.25
2023-01-19T17:36:03.543Z,5.30
2023-01-19T17:37:36.497Z,5.57
2023-01-19T17:39:14.578Z,5.43
2023-01-19T17:40:47.622Z,5.93
2023-01-19T17:42:20.524Z,6.50
2023-01-19T17:43:55.939Z,5.95
2023-01-19T17:45:28.854Z,5.63
2023-01-19T17:47:01.858Z,5.70
2023-01-19T17:48:34.746Z,5.55
2023-01-19T17:50:08.000Z,5.53
2023-01-19T17:51:40.920Z,5.32
2023-01-19T17:53:13.806Z,5.63
2023-01-19T17:54:46.800Z,5.10
2023-01-19T17:56:21.990Z,5.13
2023-01-19T17:57:54.884Z,5.50
2023-01-19T17:59:29.421Z,5.03
2023-01-19T18:01:09.489Z,5.00
2023-01-19T18:02:42.496Z,5.40
2023-01-19T18:04:15.365Z,5.30
2023-01-19T18:05:54.406Z,4.22
2023-01-19T18:07:28.561Z,4.88
2023-01-19T18:09:01.454Z,4.75
2023-01-19T18:10:34.288Z,4.95
2023-01-19T18:12:07.420Z,7.05
2023-01-19T18:13:42.699Z,5.57
2023-01-19T18:15:17.137Z,5.72
2023-01-19T18:16:50.069Z,5.88
2023-01-19T18:18:23.042Z,5.43
2023-01-19T18:19:55.899Z,5.65
2023-01-19T18:21:30.502Z,5.22
2023-01-19T18:23:03.469Z,4.95
2023-01-19T18:24:36.475Z,5.47
2023-01-19T18:26:11.494Z,5.97
2023-01-19T18:27:44.427Z,5.20
2023-01-19T18:29:19.246Z,5.00
2023-01-19T18:30:53.607Z,4.72
2023-01-19T18:32:27.303Z,4.45
2023-01-19T18:34:00.337Z,4.55
2023-01-19T18:35:33.423Z,4.60
2023-01-19T18:37:06.340Z,5.13
2023-01-19T18:38:40.043Z,5.13
2023-01-19T18:40:14.022Z,5.15
2023-01-19T18:41:47.087Z,5.30
2023-01-19T18:43:20.001Z,4.93
2023-01-19T18:44:52.882Z,5.38
2023-01-19T18:46:27.453Z,4.43
2023-01-19T18:48:02.135Z,5.20
2023-01-19T18:49:35.064Z,5.57
2023-01-19T18:51:08.980Z,5.57
2023-01-19T18:52:41.961Z,6.80
2023-01-19T18:54:14.823Z,6.15
2023-01-19T18:55:52.276Z,6.28
2023-01-19T18:57:25.471Z,6.85
2023-01-19T18:58:58.602Z,6.70
2023-01-19T19:00:31.679Z,7.57
2023-01-19T19:02:07.680Z,7.15
2023-01-19T19:03:40.715Z,6.45
2023-01-19T19:05:13.584Z,5.97
2023-01-19T19:06:46.517Z,5.97
2023-01-19T19:08:19.662Z,5.88
2023-01-19T19:09:52.609Z,5.63
2023-01-19T19:11:26.537Z,5.47
2023-01-19T19:12:59.687Z,5.25
2023-01-19T19:14:33.178Z,5.65
2023-01-19T19:16:07.295Z,5.55
2023-01-19T19:17:41.699Z,5.70
2023-01-19T19:19:15.512Z,5.40
2023-01-19T19:20:48.514Z,5.30
2023-01-19T19:22:21.594Z,5.00
2023-01-19T19:23:56.490Z,5.28
2023-01-19T19:25:29.530Z,5.22
2023-01-19T19:27:02.549Z,5.72
2023-01-19T19:28:37.076Z,5.28
2023-01-19T19:30:11.628Z,5.35
2023-01-19T19:31:46.020Z,5.07
2023-01-19T19:33:20.240Z,5.05
2023-01-19T19:34:53.562Z,5.47
2023-01-19T19:38:00.209Z,5.30
2023-01-19T19:39:33.292Z,5.85
2023-01-19T19:41:07.208Z,5.43
2023-01-19T19:42:40.147Z,5.65
2023-01-19T19:44:13.726Z,5.07
2023-01-19T19:45:56.401Z,4.88
2023-01-19T19:47:31.511Z,6.60
2023-01-19T19:49:05.897Z,5.33
2023-01-19T19:50:38.895Z,5.32
2023-01-19T19:52:11.825Z,5.25
2023-01-19T19:53:44.785Z,4.85
2023-01-19T19:55:17.943Z,5.35
2023-01-19T19:56:52.102Z,4.82
2023-01-19T19:58:25.846Z,4.65
2023-01-19T19:59:58.916Z,5.20
2023-01-19T20:01:33.668Z,4.90
2023-01-19T20:03:13.340Z,5.30
2023-01-19T20:04:47.933Z,4.82
2023-01-19T20:06:24.562Z,5.22
2023-01-19T20:07:57.603Z,5.05
2023-01-19T20:09:30.627Z,5.40
2023-01-19T20:11:08.366Z,5.20
2023-01-19T20:12:41.394Z,4.75
2023-01-19T20:14:16.247Z,5.30
2023-01-19T20:15:49.385Z,5.30
2023-01-19T20:17:23.207Z,5.18
2023-01-19T20:18:56.494Z,4.93
2023-01-19T20:20:31.011Z,5.15
2023-01-19T20:22:04.526Z,4.95
2023-01-19T20:23:37.489Z,4.90
2023-01-19T20:25:11.063Z,4.90
2023-01-19T20:26:45.870Z,5.18
2023-01-19T20:28:18.932Z,4.68
2023-01-19T20:29:57.966Z,4.95
2023-01-19T20:31:32.919Z,4.97
2023-01-19T20:33:05.909Z,5.00
2023-01-19T20:34:39.899Z,5.88
2023-01-19T20:36:15.958Z,4.90
2023-01-19T20:37:48.939Z,4.97
2023-01-19T20:39:23.241Z,4.97
2023-01-19T20:40:56.209Z,5.35
2023-01-19T20:42:29.154Z,5.07
2023-01-19T20:44:02.207Z,4.90
2023-01-19T20:45:35.274Z,5.38
2023-01-19T20:47:09.243Z,5.22
2023-01-19T20:48:42.305Z,5.27
2023-01-19T20:50:15.211Z,5.45
2023-01-19T20:51:51.267Z,5.13
2023-01-19T20:53:24.218Z,5.82
2023-01-19T20:54:57.214Z,5.88
2023-01-19T20:56:30.202Z,5.47
2023-01-19T20:58:03.405Z,5.90
2023-01-19T20:59:36.956Z,5.22
2023-01-19T21:01:15.480Z,5.00
2023-01-19T21:02:48.505Z,5.43
2023-01-19T21:04:22.341Z,5.57
2023-01-19T21:05:56.922Z,5.28
2023-01-19T21:07:32.271Z,5.40
2023-01-19T21:09:05.569Z,5.32
2023-01-19T21:10:38.484Z,5.00
2023-01-19T21:12:11.876Z,5.35
2023-01-19T21:15:18.698Z,5.30
2023-01-19T21:16:54.364Z,5.43
2023-01-19T21:18:28.277Z,5.65
2023-01-19T21:20:01.330Z,6.22
2023-01-19T21:21:34.314Z,5.55
2023-01-19T21:23:08.689Z,5.97
2023-01-19T21:24:43.693Z,6.10
2023-01-19T21:26:17.807Z,5.28
2023-01-19T21:29:24.243Z,5.32
2023-01-19T21:30:57.381Z,5.72
2023-01-19T21:32:30.544Z,5.78
2023-01-19T21:34:03.526Z,5.80
2023-01-19T21:35:36.471Z,5.38
2023-01-19T21:37:09.365Z,5.50
2023-01-19T21:38:43.658Z,5.63
2023-01-19T21:40:16.849Z,5.50
2023-01-19T21:41:49.981Z,5.00
2023-01-19T21:43:23.156Z,6.03
2023-01-19T21:44:56.340Z,6.28
2023-01-19T21:46:30.592Z,6.70
2023-01-19T21:48:03.530Z,5.22
2023-01-19T21:49:36.901Z,5.55
2023-01-19T21:52:42.856Z,5.30
2023-01-19T21:54:17.727Z,5.25
2023-01-19T21:55:50.997Z,5.00
2023-01-19T21:57:24.319Z,5.47